createdAt,value
2022-12-04T00:00:16.541Z,102099.00
2022-12-04T00:02:45.163Z,102092.34
2022-12-04T00:05:12.323Z,102093.50
2022-12-04T00:07:39.421Z,102091.16
2022-12-04T00:10:08.301Z,102095.63
2022-12-04T00:12:35.437Z,102095.97
2022-12-04T00:17:50.978Z,102089.09
2022-12-04T00:20:18.111Z,102086.34
2022-12-04T00:22:45.111Z,102085.16
2022-12-04T00:25:12.263Z,102085.44
2022-12-04T00:27:39.220Z,102084.75
2022-12-04T00:30:08.375Z,102083.69
2022-12-04T00:32:36.097Z,102083.31
2022-12-04T00:35:05.296Z,102088.31
2022-12-04T00:37:33.294Z,102077.59
2022-12-04T00:40:00.241Z,102077.38
2022-12-04T00:42:27.277Z,102082.63
2022-12-04T00:44:54.282Z,102069.53
2022-12-04T00:47:21.248Z,102077.59
2022-12-04T00:49:48.185Z,102073.84
2022-12-04T00:52:16.737Z,102070.97
2022-12-04T00:54:44.009Z,102070.66
2022-12-04T00:57:12.050Z,102079.06
2022-12-04T00:59:39.034Z,102073.56
2022-12-04T01:02:06.045Z,102082.63
2022-12-04T01:04:33.094Z,102079.28
2022-12-04T01:07:04.823Z,102080.97
2022-12-04T01:09:33.785Z,102076.44
2022-12-04T01:12:00.754Z,102076.94
2022-12-04T01:14:27.964Z,102076.69
2022-12-04T01:16:55.092Z,102078.94
2022-12-04T01:19:22.355Z,102068.16
2022-12-04T01:21:49.390Z,102075.53
2022-12-04T01:24:16.552Z,102069.44
2022-12-04T01:26:44.845Z,102069.69
2022-12-04T01:29:11.814Z,102067.41
2022-12-04T01:31:38.995Z,102075.53
2022-12-04T01:34:07.327Z,102073.84
2022-12-04T01:36:34.294Z,102060.75
2022-12-04T01:39:01.334Z,102069.53
2022-12-04T01:41:31.969Z,102068.75
2022-12-04T01:44:17.087Z,102056.22
2022-12-04T01:46:46.094Z,102060.28
2022-12-04T01:49:17.670Z,102058.59
2022-12-04T01:51:49.719Z,102060.13
2022-12-04T01:54:28.196Z,102055.75
2022-12-04T01:57:01.974Z,102056.47
2022-12-04T01:59:38.278Z,102056.22
2022-12-04T02:02:09.770Z,102046.97
2022-12-04T02:04:39.978Z,102047.91
2022-12-04T02:07:07.371Z,102047.41
2022-12-04T02:09:35.824Z,102047.28
2022-12-04T02:12:18.753Z,102045.03
2022-12-04T02:15:01.498Z,102054.06
2022-12-04T02:17:39.285Z,102058.81
2022-12-04T02:20:23.106Z,102052.63
2022-12-04T02:23:39.506Z,102055.00
2022-12-04T02:26:37.783Z,102046.09
2022-12-04T02:29:16.411Z,102055.63
2022-12-04T02:31:53.242Z,102046.94
2022-12-04T02:34:28.220Z,102052.06
2022-12-04T02:37:02.901Z,102054.28
2022-12-04T02:39:41.319Z,102053.06
2022-12-04T02:42:15.587Z,102060.44
2022-12-04T02:44:49.748Z,102057.09
2022-12-04T02:47:23.863Z,102062.34
2022-12-04T02:49:57.418Z,102053.56
2022-12-04T02:52:31.314Z,102068.53
2022-12-04T02:55:08.623Z,102063.31
2022-12-04T02:57:42.762Z,102059.00
2022-12-04T03:00:13.252Z,102054.63
2022-12-04T03:02:51.691Z,102054.28
2022-12-04T03:05:24.476Z,102058.31
2022-12-04T03:07:56.427Z,102051.19
2022-12-04T03:10:30.256Z,102048.56
2022-12-04T03:13:06.373Z,102045.38
2022-12-04T03:16:01.265Z,102047.25
2022-12-04T03:18:34.059Z,102047.84
2022-12-04T03:21:08.184Z,102043.66
2022-12-04T03:23:42.947Z,102050.31
2022-12-04T03:26:19.045Z,102044.75
2022-12-04T03:28:56.725Z,102048.31
2022-12-04T03:31:35.067Z,102046.41
2022-12-04T03:34:06.163Z,102039.06
2022-12-04T03:36:37.845Z,102036.22
2022-12-04T03:39:15.076Z,102025.78
2022-12-04T03:42:02.165Z,102028.13
2022-12-04T03:44:39.472Z,102025.50
2022-12-04T03:47:14.484Z,102040.47
2022-12-04T03:49:49.071Z,102028.88
2022-12-04T03:52:24.578Z,102032.03
2022-12-04T03:54:57.867Z,102033.72
2022-12-04T03:57:30.571Z,102032.50
2022-12-04T04:00:06.368Z,102033.13
2022-12-04T04:02:43.274Z,102034.63
2022-12-04T04:05:13.896Z,102028.94
2022-12-04T04:07:46.330Z,102025.13
2022-12-04T04:10:18.678Z,102027.16
2022-12-04T04:13:14.864Z,102026.81
2022-12-04T04:16:07.106Z,102027.81
2022-12-04T04:18:55.574Z,102035.19
2022-12-04T04:21:50.554Z,102037.06
2022-12-04T04:24:29.477Z,102034.47
2022-12-04T04:26:59.164Z,102030.91
2022-12-04T04:29:27.370Z,102032.13
2022-12-04T04:32:03.680Z,102023.81
2022-12-04T04:34:46.219Z,102022.75
2022-12-04T04:37:26.650Z,102025.59
2022-12-04T04:40:01.895Z,102027.50
2022-12-04T04:42:34.856Z,102024.78
2022-12-04T04:45:11.816Z,102026.06
2022-12-04T04:47:45.377Z,102029.94
2022-12-04T04:50:17.092Z,102033.63
2022-12-04T04:52:49.478Z,102034.59
2022-12-04T04:55:19.699Z,102029.25
2022-12-04T04:57:46.812Z,102038.13
2022-12-04T05:00:17.770Z,102039.81
2022-12-04T05:02:45.027Z,102038.75
2022-12-04T05:05:14.486Z,102035.69
2022-12-04T05:07:41.785Z,102043.63
2022-12-04T05:10:10.897Z,102040.31
2022-12-04T05:12:38.011Z,102035.69
2022-12-04T05:15:06.250Z,102044.22
2022-12-04T05:17:35.477Z,102043.50
2022-12-04T05:20:02.592Z,102037.00
2022-12-04T05:22:33.232Z,102036.88
2022-12-04T05:25:00.969Z,102038.06
2022-12-04T05:27:30.229Z,102038.78
2022-12-04T05:29:58.997Z,102041.19
2022-12-04T05:32:29.792Z,102034.97
2022-12-04T05:34:58.134Z,102040.13
2022-12-04T05:37:26.018Z,102041.06
2022-12-04T05:39:54.740Z,102046.66
2022-12-04T05:42:22.262Z,102044.03
2022-12-04T05:44:50.049Z,102044.16
2022-12-04T05:47:17.120Z,102051.66
2022-12-04T05:49:44.913Z,102046.66
2022-12-04T05:52:12.584Z,102047.13
2022-12-04T05:54:40.158Z,102044.28
2022-12-04T05:57:08.679Z,102050.44
2022-12-04T05:59:36.298Z,102054.00
2022-12-04T06:02:03.513Z,102053.78
2022-12-04T06:04:30.612Z,102047.72
2022-12-04T06:06:57.626Z,102049.72
2022-12-04T06:09:24.595Z,102043.31
2022-12-04T06:11:51.609Z,102040.69
2022-12-04T06:14:19.904Z,102042.47
2022-12-04T06:16:47.297Z,102040.56
2022-12-04T06:19:17.201Z,102046.66
2022-12-04T06:21:50.784Z,102044.03
2022-12-04T06:24:21.916Z,102041.41
2022-12-04T06:27:25.742Z,102051.88
2022-12-04T06:29:38.679Z,102048.19
2022-12-04T06:32:05.742Z,102049.03
2022-12-04T06:34:32.786Z,102044.75
2022-12-04T06:36:59.731Z,102056.50
2022-12-04T06:39:26.758Z,102054.69
2022-12-04T06:41:53.771Z,102064.69
2022-12-04T06:44:20.758Z,102054.00
2022-12-04T06:46:50.109Z,102064.00
2022-12-04T06:49:17.468Z,102066.06
2022-12-04T06:51:44.420Z,102068.06
2022-12-04T06:54:13.830Z,102064.88
2022-12-04T06:56:40.849Z,102066.78
2022-12-04T06:59:07.995Z,102070.03
2022-12-04T07:01:35.507Z,102069.06
2022-12-04T07:04:04.757Z,102075.13
2022-12-04T07:06:34.478Z,102072.63
2022-12-04T07:09:05.470Z,102080.56
2022-12-04T07:11:32.665Z,102079.50
2022-12-04T07:13:59.998Z,102089.03
2022-12-04T07:16:28.696Z,102086.66
2022-12-04T07:18:57.243Z,102082.84
2022-12-04T07:21:28.857Z,102080.22
2022-12-04T07:23:59.684Z,102082.63
2022-12-04T07:26:29.167Z,102075.47
2022-12-04T07:28:57.575Z,102078.22
2022-12-04T07:31:27.491Z,102083.22
2022-12-04T07:33:56.242Z,102076.94
2022-12-04T07:36:26.910Z,102075.25
2022-12-04T07:38:55.578Z,102081.09
2022-12-04T07:41:23.003Z,102082.88
2022-12-04T07:43:50.008Z,102078.81
2022-12-04T07:46:20.643Z,102068.59
2022-12-04T07:48:47.762Z,102078.81
2022-12-04T07:51:17.612Z,102079.19
2022-12-04T07:53:46.776Z,102079.78
2022-12-04T07:56:15.238Z,102085.00
2022-12-04T07:58:43.016Z,102079.34
2022-12-04T08:01:13.120Z,102075.53
2022-12-04T08:03:47.215Z,102071.47
2022-12-04T08:06:16.780Z,102078.13
2022-12-04T08:08:45.708Z,102080.97
2022-12-04T08:11:15.578Z,102080.28
2022-12-04T08:13:43.018Z,102078.63
2022-12-04T08:16:12.287Z,102079.44
2022-12-04T08:18:40.187Z,102079.56
2022-12-04T08:21:10.674Z,102078.72
2022-12-04T08:23:39.191Z,102082.88
2022-12-04T08:26:09.355Z,102084.56
2022-12-04T08:28:37.190Z,102096.94
2022-12-04T08:31:06.264Z,102088.97
2022-12-04T08:33:34.362Z,102100.50
2022-12-04T08:36:01.940Z,102093.84
2022-12-04T08:38:28.988Z,102101.06
2022-12-04T08:41:00.163Z,102099.75
2022-12-04T08:43:28.737Z,102106.88
2022-12-04T08:45:57.582Z,102099.75
2022-12-04T08:48:24.771Z,102108.06
2022-12-04T08:50:51.776Z,102112.03
2022-12-04T08:53:19.022Z,102113.78
2022-12-04T08:55:46.086Z,102108.34
2022-12-04T08:58:13.484Z,102113.00
2022-12-04T09:00:41.932Z,102100.50
2022-12-04T09:03:12.803Z,102099.78
2022-12-04T09:05:39.938Z,102099.34
2022-12-04T09:08:07.071Z,102093.34
2022-12-04T09:10:35.739Z,102100.63
2022-12-04T09:13:03.004Z,102084.94
2022-12-04T09:15:30.369Z,102091.47
2022-12-04T09:17:59.149Z,102085.63
2022-12-04T09:20:26.110Z,102092.66
2022-12-04T09:23:04.145Z,102087.91
2022-12-04T09:25:32.080Z,102108.63
2022-12-04T09:27:59.074Z,102101.22
2022-12-04T09:30:26.108Z,102093.13
2022-12-04T09:32:53.193Z,102098.34
2022-12-04T09:35:21.541Z,102090.41
2022-12-04T09:37:48.542Z,102083.25
2022-12-04T09:40:29.498Z,102088.38
2022-12-04T09:43:14.332Z,102086.00
2022-12-04T09:45:48.906Z,102080.78
2022-12-04T09:48:19.281Z,102075.28
2022-12-04T09:50:49.455Z,102071.38
2022-12-04T09:53:25.402Z,102064.09
2022-12-04T09:56:00.796Z,102063.28
2022-12-04T09:58:40.326Z,102066.50
2022-12-04T10:01:20.531Z,102067.56
2022-12-04T10:03:47.913Z,102063.63
2022-12-04T10:06:23.028Z,102069.81
2022-12-04T10:09:00.073Z,102067.66
2022-12-04T10:11:48.196Z,102072.31
2022-12-04T10:14:45.879Z,102072.88
2022-12-04T10:17:37.133Z,102068.84
2022-12-04T10:20:26.039Z,102066.25
2022-12-04T10:23:12.247Z,102063.63
2022-12-04T10:25:44.706Z,102067.66
2022-12-04T10:28:25.084Z,102056.13
2022-12-04T10:30:57.826Z,102056.97
2022-12-04T10:33:36.918Z,102057.69
2022-12-04T10:36:05.262Z,102061.72
2022-12-04T10:38:40.692Z,102073.97
2022-12-04T10:41:18.704Z,102054.56
2022-12-04T10:43:48.762Z,102056.81
2022-12-04T10:46:23.173Z,102050.25
2022-12-04T10:48:56.033Z,102059.31
2022-12-04T10:51:23.886Z,102053.69
2022-12-04T10:53:52.586Z,102045.47
2022-12-04T10:56:23.891Z,102053.22
2022-12-04T10:58:58.313Z,102043.81
2022-12-04T11:01:26.535Z,102049.53
2022-12-04T11:04:01.988Z,102041.66
2022-12-04T11:06:30.684Z,102048.44
2022-12-04T11:09:00.192Z,102042.38
2022-12-04T11:11:31.887Z,102044.06
2022-12-04T11:14:13.826Z,102038.31
2022-12-04T11:16:48.173Z,102032.72
2022-12-04T11:19:25.242Z,102036.16
2022-12-04T11:21:54.583Z,102029.00
2022-12-04T11:24:28.143Z,102028.78
2022-12-04T11:26:59.154Z,102033.34
2022-12-04T11:29:35.309Z,102038.56
2022-12-04T11:32:08.051Z,102031.31
2022-12-04T11:34:40.615Z,102033.81
2022-12-04T11:37:21.069Z,102039.03
2022-12-04T11:39:50.899Z,102034.66
2022-12-04T11:42:22.907Z,102033.34
2022-12-04T11:44:55.028Z,102032.00
2022-12-04T11:47:26.675Z,102037.13
2022-12-04T11:50:13.827Z,102025.94
2022-12-04T11:53:00.996Z,102020.31
2022-12-04T11:55:40.824Z,102016.34
2022-12-04T11:58:33.037Z,102013.63
2022-12-04T12:01:24.748Z,102011.13
2022-12-04T12:04:28.469Z,101994.91
2022-12-04T12:07:14.449Z,101996.06
2022-12-04T12:09:59.331Z,101998.00
2022-12-04T12:12:45.026Z,101996.06
2022-12-04T12:15:26.681Z,101992.69
2022-12-04T12:18:22.476Z,101986.22
2022-12-04T12:21:03.243Z,101977.97
2022-12-04T12:23:50.970Z,101977.34
2022-12-04T12:26:36.588Z,101975.16
2022-12-04T12:29:27.108Z,101979.19
2022-12-04T12:32:17.497Z,101989.66
2022-12-04T12:34:47.311Z,101974.56
2022-12-04T12:37:24.906Z,101978.09
2022-12-04T12:40:01.226Z,101982.09
2022-12-04T12:42:40.643Z,101976.63
2022-12-04T12:45:26.757Z,101975.47
2022-12-04T12:48:01.575Z,101978.56
2022-12-04T12:50:42.078Z,101978.09
2022-12-04T12:53:19.725Z,101977.66
2022-12-04T12:55:53.697Z,101975.47
2022-12-04T12:58:29.310Z,101980.56
2022-12-04T13:01:05.603Z,101972.78
2022-12-04T13:03:44.913Z,101979.56
2022-12-04T13:06:18.514Z,101978.47
2022-12-04T13:09:04.307Z,101973.47
2022-12-04T13:11:35.274Z,101967.97
2022-12-04T13:14:06.697Z,101962.34
2022-12-04T13:16:43.237Z,101963.03
2022-12-04T13:19:19.904Z,101955.03
2022-12-04T13:21:59.288Z,101959.13
2022-12-04T13:25:10.827Z,101968.44
2022-12-04T13:28:01.260Z,101955.97
2022-12-04T13:30:40.710Z,101957.06
2022-12-04T13:33:41.589Z,101954.56
2022-12-04T13:36:41.105Z,101953.25
2022-12-04T13:40:05.016Z,101957.59
2022-12-04T13:42:35.918Z,101957.34
2022-12-04T13:45:10.824Z,101954.72
2022-12-04T13:47:40.190Z,101951.81
2022-12-04T13:50:28.672Z,101952.41
2022-12-04T13:52:55.889Z,101948.84
2022-12-04T13:55:27.326Z,101949.38
2022-12-04T13:57:57.642Z,101949.38
2022-12-04T14:00:31.490Z,101953.25
2022-12-04T14:03:04.633Z,101949.91
2022-12-04T14:05:41.657Z,101949.34
2022-12-04T14:08:25.205Z,101952.78
2022-12-04T14:11:03.305Z,101949.91
2022-12-04T14:13:49.101Z,101959.03
2022-12-04T14:16:27.014Z,101949.63
2022-12-04T14:18:57.934Z,101941.78
2022-12-04T14:21:38.305Z,101947.03
2022-12-04T14:24:17.316Z,101944.97
2022-12-04T14:27:10.617Z,101935.91
2022-12-04T14:29:48.001Z,101939.53
2022-12-04T14:32:21.426Z,101931.50
2022-12-04T14:34:50.758Z,101929.34
2022-12-04T14:37:27.846Z,101931.25
2022-12-04T14:39:57.721Z,101929.09
2022-12-04T14:42:27.889Z,101930.34
2022-12-04T14:44:59.148Z,101929.03
2022-12-04T14:47:40.855Z,101922.09
2022-12-04T14:50:40.250Z,101928.19
2022-12-04T14:53:23.464Z,101920.31
2022-12-04T14:56:07.326Z,101923.41
2022-12-04T14:58:38.795Z,101909.34
2022-12-04T15:01:23.928Z,101911.53
2022-12-04T15:03:59.605Z,101902.88
2022-12-04T15:06:30.514Z,101907.28
2022-12-04T15:09:19.750Z,101906.75
2022-12-04T15:12:08.416Z,101918.47
2022-12-04T15:14:44.485Z,101916.19
2022-12-04T15:17:13.810Z,101913.91
2022-12-04T15:19:41.380Z,101916.25
2022-12-04T15:22:18.097Z,101911.84
2022-12-04T15:24:46.508Z,101914.59
2022-12-04T15:27:16.583Z,101920.34
2022-12-04T15:29:48.223Z,101926.03
2022-12-04T15:32:22.167Z,101924.41
2022-12-04T15:34:54.260Z,101922.47
2022-12-04T15:37:26.788Z,101921.25
2022-12-04T15:39:56.616Z,101934.13
2022-12-04T15:42:28.372Z,101933.28
2022-12-04T15:45:03.721Z,101924.34
2022-12-04T15:47:38.216Z,101923.50
2022-12-04T15:50:10.655Z,101934.00
2022-12-04T15:52:38.425Z,101927.91
2022-12-04T15:55:09.263Z,101929.59
2022-12-04T15:57:39.976Z,101926.97
2022-12-04T16:00:23.790Z,101930.09
2022-12-04T16:02:51.326Z,101936.50
2022-12-04T16:05:35.411Z,101936.75
2022-12-04T16:08:22.920Z,101929.72
2022-12-04T16:10:59.198Z,101936.22
2022-12-04T16:13:33.957Z,101934.03
2022-12-04T16:16:05.694Z,101938.78
2022-12-04T16:18:33.471Z,101946.81
2022-12-04T16:21:00.701Z,101942.00
2022-12-04T16:23:27.790Z,101949.88
2022-12-04T16:25:56.219Z,101949.34
2022-12-04T16:28:23.565Z,101948.81
2022-12-04T16:30:52.711Z,101951.03
2022-12-04T16:33:19.963Z,101942.34
2022-12-04T16:35:46.959Z,101949.78
2022-12-04T16:38:16.626Z,101953.63
2022-12-04T16:40:45.764Z,101957.66
2022-12-04T16:43:16.928Z,101961.00
2022-12-04T16:45:49.196Z,101956.84
2022-12-04T16:48:16.793Z,101952.41
2022-12-04T16:50:46.073Z,101957.53
2022-12-04T16:53:16.924Z,101955.75
2022-12-04T16:55:47.890Z,101959.06
2022-12-04T16:58:17.474Z,101960.16
2022-12-04T17:00:54.816Z,101961.00
2022-12-04T17:03:26.644Z,101956.28
2022-12-04T17:05:53.872Z,101962.94
2022-12-04T17:08:21.558Z,101956.88
2022-12-04T17:10:49.796Z,101950.19
2022-12-04T17:13:19.694Z,101948.56
2022-12-04T17:15:47.555Z,101950.50
2022-12-04T17:18:20.737Z,101950.50
2022-12-04T17:20:48.254Z,101953.13
2022-12-04T17:23:15.270Z,101956.44
2022-12-04T17:25:42.458Z,101962.38
2022-12-04T17:28:09.635Z,101951.88
2022-12-04T17:30:38.140Z,101959.59
2022-12-04T17:33:05.239Z,101957.81
2022-12-04T17:35:32.443Z,101962.81
2022-12-04T17:38:04.097Z,101958.25
2022-12-04T17:40:33.043Z,101963.75
2022-12-04T17:43:00.221Z,101964.34
2022-12-04T17:45:28.449Z,101973.47
2022-12-04T17:47:56.840Z,101966.84
2022-12-04T17:50:23.895Z,101967.25
2022-12-04T17:52:50.935Z,101966.56
2022-12-04T17:55:18.086Z,101963.94
2022-12-04T17:57:45.236Z,101961.06
2022-12-04T18:00:13.121Z,101954.38
2022-12-04T18:02:41.469Z,101970.44
2022-12-04T18:05:10.381Z,101976.19
2022-12-04T18:07:37.526Z,101962.13
2022-12-04T18:10:06.672Z,101964.34
2022-12-04T18:12:33.736Z,101972.06
2022-12-04T18:15:00.724Z,101970.16
2022-12-04T18:17:28.152Z,101967.25
2022-12-04T18:19:58.687Z,101976.94
2022-12-04T18:22:29.535Z,101970.16
2022-12-04T18:24:56.541Z,101966.13
2022-12-04T18:27:23.761Z,101969.44
2022-12-04T18:29:51.109Z,101968.75
2022-12-04T18:32:18.206Z,101966.00
2022-12-04T18:34:45.287Z,101967.25
2022-12-04T18:37:12.389Z,101962.44
2022-12-04T18:39:40.873Z,101960.25
2022-12-04T18:42:07.978Z,101959.69
2022-12-04T18:44:34.960Z,101964.13
2022-12-04T18:47:02.098Z,101963.31
2022-12-04T18:49:29.168Z,101961.63
2022-12-04T18:51:59.239Z,101955.84
2022-12-04T18:54:26.228Z,101956.38
2022-12-04T18:56:54.783Z,101959.69
2022-12-04T18:59:25.666Z,101963.16
2022-12-04T19:01:54.422Z,101960.28
2022-12-04T19:04:24.108Z,101962.50
2022-12-04T19:06:53.744Z,101963.75
2022-12-04T19:09:47.300Z,101969.69
2022-12-04T19:12:14.992Z,101968.59
2022-12-04T19:14:42.516Z,101970.00
2022-12-04T19:17:10.276Z,101963.91
2022-12-04T19:19:37.533Z,101972.34
2022-12-04T19:22:04.811Z,101966.25
2022-12-04T19:24:32.503Z,101970.25
2022-12-04T19:27:01.614Z,101962.63
2022-12-04T19:29:31.381Z,101965.56
2022-12-04T19:31:59.710Z,101968.19
2022-12-04T19:34:27.092Z,101965.41
2022-12-04T19:36:54.669Z,101960.72
2022-12-04T19:39:21.719Z,101964.69
2022-12-04T19:41:48.979Z,101955.88
2022-12-04T19:44:47.393Z,101952.50
2022-12-04T19:47:04.414Z,101960.28
2022-12-04T19:49:31.588Z,101958.50
2022-12-04T19:51:58.865Z,101959.44
2022-12-04T19:54:26.112Z,101959.19
2022-12-04T19:56:53.201Z,101955.31
2022-12-04T19:59:20.800Z,101957.78
2022-12-04T20:01:48.206Z,101951.72
2022-12-04T20:04:18.316Z,101962.22
2022-12-04T20:06:46.709Z,101953.94
2022-12-04T20:09:18.800Z,101952.84
2022-12-04T20:11:47.896Z,101946.59
2022-12-04T20:14:15.174Z,101946.19
2022-12-04T20:16:42.949Z,101943.16
2022-12-04T20:19:15.176Z,101946.78
2022-12-04T20:21:44.501Z,101948.97
2022-12-04T20:24:14.205Z,101944.41
2022-12-04T20:26:44.364Z,101949.66
2022-12-04T20:29:14.555Z,101941.78
2022-12-04T20:31:44.757Z,101937.09
2022-12-04T20:34:15.442Z,101929.06
2022-12-04T20:36:47.049Z,101936.00
2022-12-04T20:39:16.590Z,101921.72
2022-12-04T20:41:43.820Z,101917.72
2022-12-04T20:44:15.472Z,101917.72
2022-12-04T20:46:43.127Z,101916.63
2022-12-04T20:49:20.825Z,101918.16
2022-12-04T20:51:53.989Z,101920.78
2022-12-04T20:54:23.132Z,101917.19
2022-12-04T20:56:52.878Z,101918.16
2022-12-04T20:59:23.188Z,101916.78
2022-12-04T21:01:51.647Z,101924.66
2022-12-04T21:04:19.446Z,101923.25
2022-12-04T21:06:47.114Z,101921.03
2022-12-04T21:09:18.394Z,101919.94
2022-12-04T21:11:48.758Z,101917.19
2022-12-04T21:14:36.846Z,101916.78
2022-12-04T21:17:06.756Z,101912.31
2022-12-04T21:19:33.875Z,101922.16
2022-12-04T21:22:01.062Z,101921.34
2022-12-04T21:24:32.443Z,101920.22
2022-12-04T21:26:59.500Z,101916.34
2022-12-04T21:29:26.598Z,101919.66
2022-12-04T21:31:53.591Z,101915.09
2022-12-04T21:34:20.748Z,101911.50
2022-12-04T21:36:47.776Z,101919.25
2022-12-04T21:39:15.968Z,101923.66
2022-12-04T21:42:02.721Z,101919.53
2022-12-04T21:44:29.804Z,101914.41
2022-12-04T21:46:56.935Z,101915.78
2022-12-04T21:49:24.314Z,101921.03
2022-12-04T21:51:59.254Z,101911.94
2022-12-04T21:54:27.170Z,101911.94
2022-12-04T21:56:56.559Z,101912.47
2022-12-04T21:59:24.301Z,101916.47
2022-12-04T22:01:52.213Z,101917.47
2022-12-04T22:04:19.626Z,101917.88
2022-12-04T22:06:47.049Z,101913.31
2022-12-04T22:09:14.287Z,101916.47
2022-12-04T22:11:42.789Z,101914.41
2022-12-04T22:14:12.736Z,101913.56
2022-12-04T22:16:42.885Z,101907.47
2022-12-04T22:19:11.922Z,101921.28
2022-12-04T22:21:40.006Z,101916.03
2022-12-04T22:24:08.608Z,101916.75
2022-12-04T22:26:36.353Z,101919.38
2022-12-04T22:29:26.757Z,101922.69
2022-12-04T22:31:52.736Z,101908.56
2022-12-04T22:34:19.834Z,101913.81
2022-12-04T22:36:50.198Z,101912.19
2022-12-04T22:39:17.115Z,101913.81
2022-12-04T22:41:44.231Z,101908.56
2022-12-04T22:44:11.281Z,101911.34
2022-12-04T22:46:38.303Z,101903.31
2022-12-04T22:49:06.817Z,101908.56
2022-12-04T22:51:33.868Z,101905.53
2022-12-04T22:54:00.896Z,101902.22
2022-12-04T22:56:30.932Z,101903.19
2022-12-04T22:58:59.429Z,101897.78
2022-12-04T23:01:29.622Z,101904.03
2022-12-04T23:03:57.465Z,101900.84
2022-12-04T23:06:29.364Z,101898.78
2022-12-04T23:08:58.620Z,101902.94
2022-12-04T23:11:26.970Z,101898.38
2022-12-04T23:13:57.596Z,101897.53
2022-12-04T23:16:25.205Z,101904.75
2022-12-04T23:18:52.908Z,101896.16
2022-12-04T23:21:22.963Z,101894.34
2022-12-04T23:23:53.467Z,101892.69
2022-12-04T23:26:24.713Z,101896.97
2022-12-04T23:28:52.190Z,101898.66
2022-12-04T23:31:19.643Z,101898.91
2022-12-04T23:33:47.185Z,101891.72
2022-12-04T23:36:15.386Z,101899.75
2022-12-04T23:38:44.342Z,101897.41
2022-12-04T23:41:15.728Z,101901.97
2022-12-04T23:43:44.276Z,101897.41
2022-12-04T23:46:14.792Z,101900.84
2022-12-04T23:48:44.763Z,101895.06
2022-12-04T23:51:13.904Z,101894.22
2022-12-04T23:53:41.625Z,101898.66
2022-12-04T23:56:14.795Z,101890.06
2022-12-04T23:58:43.259Z,101884.13
